createdAt,value
2019-06-20T00:01:36.000Z,99614
2019-06-20T00:03:20.000Z,99624
2019-06-20T00:04:36.000Z,99622
2019-06-20T00:06:36.000Z,99625
2019-06-20T00:07:36.000Z,99631
2019-06-20T00:09:36.000Z,99631
2019-06-20T00:11:36.000Z,99627
2019-06-20T00:12:36.000Z,99628
2019-06-20T00:14:36.000Z,99635
2019-06-20T00:16:36.000Z,99626
2019-06-20T00:18:36.000Z,99632
2019-06-20T00:20:35.000Z,99629
2019-06-20T00:22:21.000Z,99633
2019-06-20T00:23:36.000Z,99631
2019-06-20T00:24:36.000Z,99630
2019-06-20T00:26:36.000Z,99626
2019-06-20T00:28:36.000Z,99624
2019-06-20T00:30:36.000Z,99622
2019-06-20T00:31:36.000Z,99619
2019-06-20T00:33:37.000Z,99627
2019-06-20T00:35:37.000Z,99628
2019-06-20T00:37:37.000Z,99631
2019-06-20T00:38:37.000Z,99631
2019-06-20T00:40:37.000Z,99635
2019-06-20T00:42:24.000Z,99637
2019-06-20T00:44:38.000Z,99641
2019-06-20T00:46:22.000Z,99636
2019-06-20T00:47:37.000Z,99634
2019-06-20T00:49:37.000Z,99636
2019-06-20T00:51:37.000Z,99630
2019-06-20T00:52:37.000Z,99629
2019-06-20T00:54:37.000Z,99628
2019-06-20T00:56:37.000Z,99633
2019-06-20T00:58:37.000Z,99627
2019-06-20T01:00:37.000Z,99631
2019-06-20T01:02:37.000Z,99637
2019-06-20T01:04:37.000Z,99637
2019-06-20T01:06:37.000Z,99645
2019-06-20T01:08:37.000Z,99643
2019-06-20T01:10:37.000Z,99636
2019-06-20T01:12:37.000Z,99641
2019-06-20T01:14:37.000Z,99646
2019-06-20T01:16:37.000Z,99641
2019-06-20T01:18:22.000Z,99645
2019-06-20T01:19:37.000Z,99646
2019-06-20T01:21:37.000Z,99651
2019-06-20T01:22:37.000Z,99655
2019-06-20T01:23:37.000Z,99652
2019-06-20T01:25:40.000Z,99652
2019-06-20T01:27:40.000Z,99655
2019-06-20T01:29:40.000Z,99665
2019-06-20T01:31:40.000Z,99663
2019-06-20T01:33:40.000Z,99669
2019-06-20T01:35:40.000Z,99673
2019-06-20T01:36:40.000Z,99672
2019-06-20T01:38:40.000Z,99674
2019-06-20T01:40:40.000Z,99675
2019-06-20T01:41:40.000Z,99676
2019-06-20T01:43:25.000Z,99679
2019-06-20T01:44:40.000Z,99675
2019-06-20T01:46:40.000Z,99678
2019-06-20T01:48:40.000Z,99677
2019-06-20T01:50:40.000Z,99676
2019-06-20T01:51:40.000Z,99680
2019-06-20T01:53:40.000Z,99680
2019-06-20T01:55:40.000Z,99678
2019-06-20T01:57:40.000Z,99682
2019-06-20T01:59:40.000Z,99689
2019-06-20T02:01:40.000Z,99686
2019-06-20T02:03:40.000Z,99689
2019-06-20T02:04:40.000Z,99683
2019-06-20T02:06:25.000Z,99677
2019-06-20T02:07:25.000Z,99677
2019-06-20T02:09:40.000Z,99683
2019-06-20T02:10:40.000Z,99686
2019-06-20T02:12:40.000Z,99682
2019-06-20T02:14:40.000Z,99685
2019-06-20T02:16:40.000Z,99689
2019-06-20T02:18:40.000Z,99685
2019-06-20T02:19:40.000Z,99680
2019-06-20T02:21:40.000Z,99692
2019-06-20T02:22:40.000Z,99688
2019-06-20T02:24:25.000Z,99685
2019-06-20T02:25:40.000Z,99692
2019-06-20T02:27:40.000Z,99690
2019-06-20T02:28:41.000Z,99688
2019-06-20T02:29:41.000Z,99688
2019-06-20T02:31:25.000Z,99694
2019-06-20T02:32:41.000Z,99691
2019-06-20T02:34:41.000Z,99697
2019-06-20T02:36:41.000Z,99694
2019-06-20T02:38:41.000Z,99697
2019-06-20T02:40:41.000Z,99702
2019-06-20T02:42:41.000Z,99700
2019-06-20T02:43:41.000Z,99703
2019-06-20T02:45:41.000Z,99697
2019-06-20T02:46:41.000Z,99700
2019-06-20T02:48:41.000Z,99702
2019-06-20T02:50:41.000Z,99702
2019-06-20T02:51:41.000Z,99701
2019-06-20T02:53:41.000Z,99700
2019-06-20T02:55:41.000Z,99697
2019-06-20T02:57:41.000Z,99696
2019-06-20T02:59:41.000Z,99700
2019-06-20T03:01:00.000Z,99700
2019-06-20T03:03:00.000Z,99692
2019-06-20T03:04:00.000Z,99710
2019-06-20T03:05:09.000Z,99706
2019-06-20T03:07:09.000Z,99713
2019-06-20T03:08:53.000Z,99710
2019-06-20T03:10:08.000Z,99709
2019-06-20T03:12:09.000Z,99710
2019-06-20T03:13:30.000Z,99712
2019-06-20T03:15:30.000Z,99710
2019-06-20T03:17:15.000Z,99703
2019-06-20T03:18:30.000Z,99710
2019-06-20T03:20:30.000Z,99714
2019-06-20T03:22:30.000Z,99718
2019-06-20T03:24:30.000Z,99714
2019-06-20T03:26:30.000Z,99726
2019-06-20T03:28:30.000Z,99723
2019-06-20T03:30:30.000Z,99720
2019-06-20T03:32:29.000Z,99733
2019-06-20T03:34:29.000Z,99723
2019-06-20T03:35:29.000Z,99725
2019-06-20T03:36:29.000Z,99728
2019-06-20T03:38:14.000Z,99722
2019-06-20T03:39:29.000Z,99725
2019-06-20T03:40:29.000Z,99729
2019-06-20T03:42:29.000Z,99734
2019-06-20T03:44:14.000Z,99732
2019-06-20T03:46:29.000Z,99735
2019-06-20T03:47:29.000Z,99727
2019-06-20T03:49:29.000Z,99726
2019-06-20T03:51:29.000Z,99729
2019-06-20T03:52:29.000Z,99732
2019-06-20T03:54:29.000Z,99733
2019-06-20T03:56:29.000Z,99732
2019-06-20T03:58:29.000Z,99736
2019-06-20T03:59:29.000Z,99737
2019-06-20T04:00:29.000Z,99730
2019-06-20T04:02:29.000Z,99732
2019-06-20T04:03:29.000Z,99732
2019-06-20T04:05:29.000Z,99738
2019-06-20T04:07:29.000Z,99740
2019-06-20T04:09:29.000Z,99733
2019-06-20T04:10:59.000Z,99741
2019-06-20T04:12:29.000Z,99747
2019-06-20T04:14:29.000Z,99749
2019-06-20T04:16:29.000Z,99756
2019-06-20T04:18:15.000Z,99750
2019-06-20T04:19:30.000Z,99755
2019-06-20T04:21:30.000Z,99758
2019-06-20T04:23:15.000Z,99754
2019-06-20T04:24:31.000Z,99760
2019-06-20T04:26:30.000Z,99762
2019-06-20T04:28:30.000Z,99764
2019-06-20T04:30:30.000Z,99769
2019-06-20T04:32:15.000Z,99777
2019-06-20T04:33:15.000Z,99777
2019-06-20T04:34:30.000Z,99782
2019-06-20T04:36:31.000Z,99777
2019-06-20T04:38:31.000Z,99783
2019-06-20T04:40:30.000Z,99783
2019-06-20T04:41:30.000Z,99789
2019-06-20T04:43:15.000Z,99784
2019-06-20T04:44:30.000Z,99788
2019-06-20T04:45:30.000Z,99795
2019-06-20T04:47:30.000Z,99789
2019-06-20T04:48:31.000Z,99798
2019-06-20T04:50:30.000Z,99788
2019-06-20T04:52:15.000Z,99797
2019-06-20T04:53:31.000Z,99796
2019-06-20T04:55:15.000Z,99801
2019-06-20T04:56:30.000Z,99805
2019-06-20T04:57:31.000Z,99806
2019-06-20T04:59:30.000Z,99800
2019-06-20T05:01:15.000Z,99808
2019-06-20T05:02:15.000Z,99809
2019-06-20T05:03:30.000Z,99815
2019-06-20T05:04:31.000Z,99810
2019-06-20T05:06:30.000Z,99821
2019-06-20T05:07:30.000Z,99812
2019-06-20T05:08:31.000Z,99813
2019-06-20T05:10:30.000Z,99814
2019-06-20T05:12:30.000Z,99813
2019-06-20T05:13:30.000Z,99824
2019-06-20T05:15:31.000Z,99815
2019-06-20T05:17:30.000Z,99821
2019-06-20T05:19:15.000Z,99828
2019-06-20T05:20:30.000Z,99830
2019-06-20T05:21:31.000Z,99830
2019-06-20T05:23:15.000Z,99826
2019-06-20T05:24:16.000Z,99829
2019-06-20T05:26:30.000Z,99825
2019-06-20T05:27:30.000Z,99826
2019-06-20T05:28:30.000Z,99829
2019-06-20T05:30:30.000Z,99832
2019-06-20T05:32:31.000Z,99829
2019-06-20T05:34:30.000Z,99827
2019-06-20T05:36:30.000Z,99830
2019-06-20T05:37:30.000Z,99830
2019-06-20T05:38:31.000Z,99829
2019-06-20T05:40:30.000Z,99831
2019-06-20T05:42:31.000Z,99837
2019-06-20T05:44:30.000Z,99830
2019-06-20T05:46:00.000Z,99826
2019-06-20T05:47:12.000Z,99820
2019-06-20T05:48:30.000Z,99832
2019-06-20T05:50:30.000Z,99841
2019-06-20T05:51:30.000Z,99832
2019-06-20T05:53:15.000Z,99837
2019-06-20T05:54:30.000Z,99839
2019-06-20T05:55:30.000Z,99833
2019-06-20T05:57:01.000Z,99834
2019-06-20T05:58:30.000Z,99837
2019-06-20T05:59:31.000Z,99834
2019-06-20T06:01:30.000Z,99828
2019-06-20T06:02:30.000Z,99835
2019-06-20T06:03:30.000Z,99838
2019-06-20T06:05:01.000Z,99839
2019-06-20T06:06:30.000Z,99839
2019-06-20T06:07:30.000Z,99844
2019-06-20T06:09:30.000Z,99844
2019-06-20T06:11:15.000Z,99850
2019-06-20T06:12:30.000Z,99847
2019-06-20T06:13:30.000Z,99851
2019-06-20T06:15:00.000Z,99840
2019-06-20T06:16:15.000Z,99848
2019-06-20T06:17:30.000Z,99847
2019-06-20T06:18:30.000Z,99851
2019-06-20T06:20:30.000Z,99848
2019-06-20T06:22:31.000Z,99846
2019-06-20T06:24:30.000Z,99847
2019-06-20T06:25:30.000Z,99850
2019-06-20T06:26:30.000Z,99845
2019-06-20T06:28:30.000Z,99849
2019-06-20T06:30:14.000Z,99842
2019-06-20T06:31:30.000Z,99844
2019-06-20T06:33:30.000Z,99842
2019-06-20T06:35:14.000Z,99847
2019-06-20T06:36:14.000Z,99848
2019-06-20T06:37:30.000Z,99851
2019-06-20T06:39:30.000Z,99852
2019-06-20T06:41:15.000Z,99852
2019-06-20T06:42:30.000Z,99854
2019-06-20T06:43:30.000Z,99851
2019-06-20T06:45:30.000Z,99858
2019-06-20T06:47:30.000Z,99856
2019-06-20T06:49:30.000Z,99858
2019-06-20T06:51:00.000Z,99855
2019-06-20T06:52:30.000Z,99863
2019-06-20T06:53:30.000Z,99850
2019-06-20T06:54:30.000Z,99857
2019-06-20T06:56:14.000Z,99857
2019-06-20T06:57:14.000Z,99857
2019-06-20T06:58:15.000Z,99851
2019-06-20T06:59:30.000Z,99856
2019-06-20T07:01:15.000Z,99859
2019-06-20T07:03:30.000Z,99861
2019-06-20T07:05:30.000Z,99858
2019-06-20T07:06:30.000Z,99857
2019-06-20T07:08:30.000Z,99860
2019-06-20T07:10:30.000Z,99860
2019-06-20T07:12:30.000Z,99860
2019-06-20T07:13:30.000Z,99860
2019-06-20T07:15:30.000Z,99858
2019-06-20T07:17:15.000Z,99860
2019-06-20T07:19:30.000Z,99865
2019-06-20T07:21:30.000Z,99866
2019-06-20T07:22:30.000Z,99859
2019-06-20T07:23:30.000Z,99866
2019-06-20T07:25:30.000Z,99857
2019-06-20T07:26:30.000Z,99857
2019-06-20T07:27:30.000Z,99856
2019-06-20T07:29:15.000Z,99866
2019-06-20T07:31:30.000Z,99860
2019-06-20T07:33:30.000Z,99859
2019-06-20T07:35:30.000Z,99858
2019-06-20T07:37:30.000Z,99860
2019-06-20T07:39:30.000Z,99862
2019-06-20T07:41:30.000Z,99864
2019-06-20T07:42:30.000Z,99865
2019-06-20T07:43:30.000Z,99867
2019-06-20T07:45:30.000Z,99868
2019-06-20T07:47:15.000Z,99867
2019-06-20T07:48:30.000Z,99871
2019-06-20T07:50:30.000Z,99873
2019-06-20T07:52:30.000Z,99865
2019-06-20T07:54:30.000Z,99869
2019-06-20T07:55:30.000Z,99871
2019-06-20T07:57:30.000Z,99874
2019-06-20T07:59:30.000Z,99877
2019-06-20T08:00:30.000Z,99877
2019-06-20T08:02:15.000Z,99878
2019-06-20T08:03:30.000Z,99866
2019-06-20T08:05:30.000Z,99879
2019-06-20T08:07:15.000Z,99886
2019-06-20T08:08:30.000Z,99882
2019-06-20T08:10:30.000Z,99879
2019-06-20T08:11:30.000Z,99877
2019-06-20T08:13:30.000Z,99883
2019-06-20T08:15:00.000Z,99880
2019-06-20T08:16:03.000Z,99885
2019-06-20T08:17:30.000Z,99885
2019-06-20T08:19:30.000Z,99886
2019-06-20T08:20:30.000Z,99891
2019-06-20T08:22:30.000Z,99892
2019-06-20T08:24:15.000Z,99890
2019-06-20T08:25:15.000Z,99887
2019-06-20T08:26:30.000Z,99896
2019-06-20T08:28:00.000Z,99898
2019-06-20T08:29:20.000Z,99892
2019-06-20T08:31:30.000Z,99893
2019-06-20T08:33:04.000Z,99890
2019-06-20T08:35:00.000Z,99889
2019-06-20T08:36:17.000Z,99893
2019-06-20T08:38:02.000Z,99892
2019-06-20T08:40:00.000Z,99887
2019-06-20T08:41:17.000Z,99885
2019-06-20T08:43:02.000Z,99894
2019-06-20T08:45:00.000Z,99898
2019-06-20T08:46:16.000Z,99892
2019-06-20T08:48:00.000Z,99894
2019-06-20T08:49:16.000Z,99895
2019-06-20T08:51:00.000Z,99892
2019-06-20T08:52:15.000Z,99888
2019-06-20T08:54:00.000Z,99902
2019-06-20T08:55:15.000Z,99897
2019-06-20T08:57:15.000Z,99901
2019-06-20T08:59:14.000Z,99899
2019-06-20T09:00:29.000Z,99904
2019-06-20T09:03:29.000Z,99902
2019-06-20T09:04:30.000Z,99900
2019-06-20T09:06:30.000Z,99903
2019-06-20T09:08:15.000Z,99898
2019-06-20T09:10:16.000Z,99906
2019-06-20T09:12:30.000Z,99908
2019-06-20T09:14:00.000Z,99909
2019-06-20T09:16:15.000Z,99901
2019-06-20T09:17:29.000Z,99905
2019-06-20T09:18:30.000Z,99906
2019-06-20T09:19:30.000Z,99900
2019-06-20T09:21:01.000Z,99906
2019-06-20T09:22:30.000Z,99898
2019-06-20T09:24:29.000Z,99908
2019-06-20T09:26:16.000Z,99909
2019-06-20T09:27:30.000Z,99906
2019-06-20T09:29:30.000Z,99906
2019-06-20T09:31:30.000Z,99910
2019-06-20T09:33:15.000Z,99913
2019-06-20T09:35:14.000Z,99921
2019-06-20T09:36:30.000Z,99918
2019-06-20T09:38:30.000Z,99915
2019-06-20T09:39:30.000Z,99913
2019-06-20T09:41:15.000Z,99913
2019-06-20T09:42:30.000Z,99921
2019-06-20T09:44:00.000Z,99923
2019-06-20T09:45:30.000Z,99915
2019-06-20T09:47:00.000Z,99919
2019-06-20T09:48:30.000Z,99921
2019-06-20T09:49:30.000Z,99921
2019-06-20T09:51:15.000Z,99920
2019-06-20T09:52:30.000Z,99932
2019-06-20T09:54:30.000Z,99932
2019-06-20T09:56:30.000Z,99929
2019-06-20T09:57:30.000Z,99928
2019-06-20T09:59:15.000Z,99933
2019-06-20T10:01:30.000Z,99930
2019-06-20T10:02:30.000Z,99933
2019-06-20T10:04:30.000Z,99935
2019-06-20T10:06:30.000Z,99937
2019-06-20T10:08:15.000Z,99941
2019-06-20T10:09:15.000Z,99943
2019-06-20T10:10:30.000Z,99949
2019-06-20T10:12:00.000Z,99935
2019-06-20T10:13:30.000Z,99942
2019-06-20T10:15:30.000Z,99944
2019-06-20T10:17:30.000Z,99941
2019-06-20T10:19:30.000Z,99948
2019-06-20T10:21:30.000Z,99945
2019-06-20T10:23:30.000Z,99947
2019-06-20T10:24:30.000Z,99950
2019-06-20T10:26:30.000Z,99949
2019-06-20T10:28:30.000Z,99954
2019-06-20T10:30:00.000Z,99944
2019-06-20T10:31:30.000Z,99957
2019-06-20T10:32:30.000Z,99955
2019-06-20T10:33:30.000Z,99958
2019-06-20T10:35:30.000Z,99950
2019-06-20T10:37:15.000Z,99955
2019-06-20T10:38:30.000Z,99954
2019-06-20T10:39:30.000Z,99958
2019-06-20T10:41:30.000Z,99958
2019-06-20T10:42:30.000Z,99956
2019-06-20T10:44:30.000Z,99961
2019-06-20T10:46:30.000Z,99959
2019-06-20T10:47:30.000Z,99967
2019-06-20T10:49:30.000Z,99963
2019-06-20T10:51:14.000Z,99969
2019-06-20T10:52:30.000Z,99971
2019-06-20T10:53:30.000Z,99964
2019-06-20T10:55:30.000Z,99966
2019-06-20T10:57:30.000Z,99966
2019-06-20T10:59:30.000Z,99964
2019-06-20T11:00:59.000Z,99974
2019-06-20T11:02:30.000Z,99966
2019-06-20T11:04:30.000Z,99971
2019-06-20T11:06:15.000Z,99970
2019-06-20T11:07:30.000Z,99967
2019-06-20T11:08:30.000Z,99973
2019-06-20T11:10:30.000Z,99967
2019-06-20T11:11:30.000Z,99968
2019-06-20T11:13:30.000Z,99975
2019-06-20T11:14:30.000Z,99980
2019-06-20T11:15:30.000Z,99973
2019-06-20T11:17:30.000Z,99974
2019-06-20T11:18:30.000Z,99979
2019-06-20T11:19:30.000Z,99985
2019-06-20T11:21:30.000Z,99977
2019-06-20T11:23:30.000Z,99968
2019-06-20T11:25:15.000Z,99968
2019-06-20T11:27:30.000Z,99968
2019-06-20T11:29:15.000Z,99965
2019-06-20T11:31:15.000Z,99971
2019-06-20T11:33:15.000Z,99968
2019-06-20T11:34:30.000Z,99976
2019-06-20T11:36:30.000Z,99964
2019-06-20T11:37:30.000Z,99968
2019-06-20T11:39:30.000Z,99972
2019-06-20T11:41:30.000Z,99970
2019-06-20T11:42:30.000Z,99961
2019-06-20T11:44:30.000Z,99967
2019-06-20T11:45:30.000Z,99964
2019-06-20T11:46:31.000Z,99967
2019-06-20T11:48:31.000Z,99960
2019-06-20T11:50:31.000Z,99968
2019-06-20T11:51:31.000Z,99961
2019-06-20T11:53:15.000Z,99959
2019-06-20T11:54:31.000Z,99957
2019-06-20T11:56:31.000Z,99968
2019-06-20T11:58:15.000Z,99963
2019-06-20T11:59:31.000Z,99960
2019-06-20T12:01:00.000Z,99960
2019-06-20T12:11:44.000Z,99950
2019-06-20T12:13:48.000Z,99950
2019-06-20T12:14:48.000Z,99952
2019-06-20T12:16:33.000Z,99947
2019-06-20T12:17:48.000Z,99942
2019-06-20T12:19:33.000Z,99950
2019-06-20T12:20:48.000Z,99958
2019-06-20T12:22:48.000Z,99949
2019-06-20T12:24:48.000Z,99949
2019-06-20T12:26:48.000Z,99944
2019-06-20T12:27:48.000Z,99948
2019-06-20T12:29:48.000Z,99944
2019-06-20T12:31:18.000Z,99949
2019-06-20T12:32:48.000Z,99950
2019-06-20T12:33:48.000Z,99949
2019-06-20T12:34:48.000Z,99953
2019-06-20T12:35:48.000Z,99948
2019-06-20T12:37:48.000Z,99949
2019-06-20T12:39:48.000Z,99948
2019-06-20T12:41:48.000Z,99947
2019-06-20T12:43:48.000Z,99944
2019-06-20T12:44:48.000Z,99948
2019-06-20T12:46:48.000Z,99950
2019-06-20T12:47:48.000Z,99945
2019-06-20T12:49:49.000Z,99939
2019-06-20T12:51:34.000Z,99946
2019-06-20T12:52:49.000Z,99946
2019-06-20T12:54:49.000Z,99944
2019-06-20T12:56:49.000Z,99949
2019-06-20T12:58:49.000Z,99938
2019-06-20T13:00:49.000Z,99946
2019-06-20T13:02:49.000Z,99942
2019-06-20T13:04:49.000Z,99942
2019-06-20T13:06:49.000Z,99942
2019-06-20T13:08:49.000Z,99945
2019-06-20T13:10:34.000Z,99944
2019-06-20T13:12:34.000Z,99945
2019-06-20T13:13:49.000Z,99940
2019-06-20T13:15:49.000Z,99942
2019-06-20T13:17:49.000Z,99938
2019-06-20T13:19:34.000Z,99943
2019-06-20T13:21:49.000Z,99946
2019-06-20T13:23:19.000Z,99945
2019-06-20T13:24:49.000Z,99943
2019-06-20T13:26:49.000Z,99946
2019-06-20T13:28:49.000Z,99950
2019-06-20T13:30:49.000Z,99947
2019-06-20T13:32:34.000Z,99949
2019-06-20T13:33:49.000Z,99947
2019-06-20T13:34:49.000Z,99951
2019-06-20T13:35:49.000Z,99952
2019-06-20T13:37:49.000Z,99952
2019-06-20T13:39:49.000Z,99954
2019-06-20T13:41:49.000Z,99965
2019-06-20T13:43:34.000Z,99962
2019-06-20T13:45:49.000Z,99962
2019-06-20T13:46:49.000Z,99970
2019-06-20T13:48:19.000Z,99961
2019-06-20T13:49:49.000Z,99967
2019-06-20T13:51:49.000Z,99961
2019-06-20T13:53:49.000Z,99966
2019-06-20T13:55:49.000Z,99957
2019-06-20T13:57:49.000Z,99965
2019-06-20T13:59:49.000Z,99965
2019-06-20T14:01:49.000Z,99969
2019-06-20T14:02:49.000Z,99965
2019-06-20T14:04:49.000Z,99963
2019-06-20T14:06:49.000Z,99957
2019-06-20T14:07:49.000Z,99961
2019-06-20T14:09:49.000Z,99958
2019-06-20T14:11:49.000Z,99960
2019-06-20T14:12:49.000Z,99961
2019-06-20T14:14:49.000Z,99962
2019-06-20T14:16:33.000Z,99964
2019-06-20T14:17:34.000Z,99955
2019-06-20T14:19:45.000Z,99956
2019-06-20T14:21:31.000Z,99952
2019-06-20T14:23:31.000Z,99960
2019-06-20T14:24:31.000Z,99964
2019-06-20T14:26:31.000Z,99969
2019-06-20T14:28:33.000Z,99970
2019-06-20T14:29:41.000Z,99972
2019-06-20T14:31:41.000Z,99969
2019-06-20T14:33:26.000Z,99957
2019-06-20T14:35:40.000Z,99968
2019-06-20T14:37:40.000Z,99969
2019-06-20T14:39:40.000Z,99973
2019-06-20T14:41:40.000Z,99971
2019-06-20T14:43:40.000Z,99974
2019-06-20T14:44:40.000Z,99973
2019-06-20T14:45:40.000Z,99972
2019-06-20T14:47:25.000Z,99972
2019-06-20T14:48:25.000Z,99974
2019-06-20T14:50:40.000Z,99978
2019-06-20T14:51:40.000Z,99980
2019-06-20T14:52:40.000Z,99980
2019-06-20T14:54:25.000Z,99985
2019-06-20T14:55:40.000Z,99989
2019-06-20T14:57:40.000Z,99988
2019-06-20T14:59:43.000Z,99989
2019-06-20T15:01:43.000Z,99993
2019-06-20T15:03:43.000Z,99992
2019-06-20T15:05:43.000Z,99991
2019-06-20T15:07:28.000Z,99993
2019-06-20T15:09:43.000Z,99997
2019-06-20T15:11:43.000Z,99991
2019-06-20T15:13:43.000Z,99996
2019-06-20T15:15:28.000Z,99996
2019-06-20T15:17:43.000Z,100007
2019-06-20T15:19:43.000Z,100008
2019-06-20T15:21:43.000Z,100006
2019-06-20T15:22:43.000Z,100003
2019-06-20T15:23:43.000Z,99996
2019-06-20T15:25:43.000Z,99993
2019-06-20T15:26:43.000Z,99996
2019-06-20T15:28:43.000Z,99994
2019-06-20T15:30:43.000Z,99993
2019-06-20T15:32:13.000Z,99994
2019-06-20T15:33:43.000Z,99996
2019-06-20T15:34:43.000Z,99995
2019-06-20T15:35:43.000Z,99994
2019-06-20T15:37:28.000Z,99989
2019-06-20T15:38:43.000Z,99996
2019-06-20T15:40:43.000Z,99990
2019-06-20T15:41:43.000Z,99993
2019-06-20T15:43:43.000Z,99980
2019-06-20T15:45:43.000Z,99989
2019-06-20T15:47:28.000Z,99990
2019-06-20T15:48:43.000Z,99995
2019-06-20T15:50:43.000Z,99990
2019-06-20T15:51:43.000Z,99988
2019-06-20T15:52:43.000Z,99993
2019-06-20T15:54:43.000Z,99989
2019-06-20T15:56:43.000Z,99996
2019-06-20T15:58:28.000Z,99999
2019-06-20T16:00:43.000Z,100006
2019-06-20T16:02:43.000Z,100006
2019-06-20T16:04:43.000Z,100002
2019-06-20T16:05:43.000Z,100001
2019-06-20T16:07:43.000Z,100010
2019-06-20T16:08:43.000Z,100003
2019-06-20T16:10:28.000Z,100004
2019-06-20T16:12:43.000Z,100001
2019-06-20T16:14:43.000Z,99997
2019-06-20T16:16:28.000Z,99991
2019-06-20T16:18:43.000Z,99996
2019-06-20T16:20:43.000Z,99993
2019-06-20T16:22:43.000Z,100003
2019-06-20T16:24:43.000Z,99996
2019-06-20T16:26:43.000Z,99997
2019-06-20T16:28:43.000Z,99995
2019-06-20T16:30:28.000Z,100001
2019-06-20T16:32:43.000Z,100002
2019-06-20T16:34:43.000Z,100002
2019-06-20T16:35:43.000Z,100005
2019-06-20T16:36:43.000Z,100006
2019-06-20T16:38:43.000Z,100003
2019-06-20T16:39:43.000Z,100006
2019-06-20T16:41:28.000Z,100004
2019-06-20T16:42:43.000Z,100001
2019-06-20T16:44:43.000Z,99996
2019-06-20T16:45:43.000Z,99999
2019-06-20T16:47:43.000Z,99991
2019-06-20T16:49:43.000Z,99993
2019-06-20T16:51:43.000Z,99995
2019-06-20T16:53:28.000Z,99995
2019-06-20T16:54:43.000Z,99997
2019-06-20T16:56:43.000Z,100004
2019-06-20T16:58:40.000Z,100008
2019-06-20T17:00:43.000Z,100016
2019-06-20T17:01:43.000Z,100020
2019-06-20T17:02:51.000Z,100014
2019-06-20T17:04:51.000Z,100022
2019-06-20T17:06:51.000Z,100026
2019-06-20T17:08:36.000Z,100030
2019-06-20T17:09:51.000Z,100034
2019-06-20T17:11:51.000Z,100046
2019-06-20T17:13:51.000Z,100038
2019-06-20T17:15:51.000Z,100044
2019-06-20T17:16:54.000Z,100048
2019-06-20T17:18:54.000Z,100050
2019-06-20T17:20:13.000Z,100057
2019-06-20T17:22:13.000Z,100058
2019-06-20T17:24:13.000Z,100059
2019-06-20T17:25:30.000Z,100063
2019-06-20T17:27:30.000Z,100065
2019-06-20T17:28:30.000Z,100061
2019-06-20T17:30:30.000Z,100058
2019-06-20T17:32:15.000Z,100064
2019-06-20T17:34:14.000Z,100059
2019-06-20T17:35:29.000Z,100067
2019-06-20T17:37:29.000Z,100065
2019-06-20T17:39:29.000Z,100062
2019-06-20T17:41:29.000Z,100066
2019-06-20T17:42:29.000Z,100067
2019-06-20T17:44:29.000Z,100070
2019-06-20T17:46:29.000Z,100067
2019-06-20T17:48:14.000Z,100072
2019-06-20T17:49:29.000Z,100072
2019-06-20T17:51:29.000Z,100072
2019-06-20T17:53:14.000Z,100078
2019-06-20T17:54:29.000Z,100080
2019-06-20T17:56:14.000Z,100083
2019-06-20T17:58:29.000Z,100096
2019-06-20T17:59:29.000Z,100094
2019-06-20T18:00:29.000Z,100099
2019-06-20T18:02:29.000Z,100098
2019-06-20T18:03:58.000Z,100102
2019-06-20T18:05:29.000Z,100102
2019-06-20T18:06:29.000Z,100105
2019-06-20T18:07:29.000Z,100104
2019-06-20T18:09:29.000Z,100105
2019-06-20T18:10:29.000Z,100107
2019-06-20T18:12:29.000Z,100106
2019-06-20T18:14:29.000Z,100109
2019-06-20T18:16:14.000Z,100106
2019-06-20T18:17:14.000Z,100116
2019-06-20T18:18:29.000Z,100117
2019-06-20T18:20:14.000Z,100118
2019-06-20T18:21:29.000Z,100118
2019-06-20T18:23:29.000Z,100119
2019-06-20T18:25:29.000Z,100117
2019-06-20T18:27:29.000Z,100112
2019-06-20T18:29:30.000Z,100119
2019-06-20T18:31:30.000Z,100110
2019-06-20T18:33:30.000Z,100121
2019-06-20T18:35:00.000Z,100109
2019-06-20T18:36:30.000Z,100113
2019-06-20T18:38:15.000Z,100126
2019-06-20T18:39:15.000Z,100112
2019-06-20T18:40:15.000Z,100116
2019-06-20T18:41:30.000Z,100122
2019-06-20T18:43:30.000Z,100120
2019-06-20T18:45:15.000Z,100131
2019-06-20T18:46:30.000Z,100127
2019-06-20T18:48:30.000Z,100125
2019-06-20T18:49:30.000Z,100128
2019-06-20T18:51:30.000Z,100130
2019-06-20T18:53:30.000Z,100136
2019-06-20T18:55:30.000Z,100135
2019-06-20T18:57:00.000Z,100135
2019-06-20T18:58:30.000Z,100131
2019-06-20T19:00:30.000Z,100141
2019-06-20T19:02:30.000Z,100149
2019-06-20T19:04:30.000Z,100143
2019-06-20T19:06:30.000Z,100145
2019-06-20T19:08:30.000Z,100139
2019-06-20T19:10:30.000Z,100142
2019-06-20T19:12:15.000Z,100144
2019-06-20T19:13:30.000Z,100141
2019-06-20T19:14:30.000Z,100146
2019-06-20T19:16:30.000Z,100144
2019-06-20T19:17:30.000Z,100147
2019-06-20T19:19:30.000Z,100150
2019-06-20T19:21:30.000Z,100151
2019-06-20T19:22:30.000Z,100153
2019-06-20T19:23:30.000Z,100159
2019-06-20T19:25:00.000Z,100160
2019-06-20T19:27:30.000Z,100163
2019-06-20T19:29:30.000Z,100170
2019-06-20T19:31:30.000Z,100173
2019-06-20T19:32:30.000Z,100174
2019-06-20T19:34:29.000Z,100167
2019-06-20T19:36:29.000Z,100172
2019-06-20T19:37:29.000Z,100177
2019-06-20T19:38:29.000Z,100177
2019-06-20T19:40:29.000Z,100177
2019-06-20T19:42:29.000Z,100183
2019-06-20T19:44:14.000Z,100189
2019-06-20T19:45:29.000Z,100191
2019-06-20T19:46:29.000Z,100192
2019-06-20T19:48:29.000Z,100198
2019-06-20T19:50:29.000Z,100194
2019-06-20T19:52:29.000Z,100201
2019-06-20T19:53:30.000Z,100200
2019-06-20T19:55:30.000Z,100205
2019-06-20T19:56:30.000Z,100202
2019-06-20T19:58:29.000Z,100200
2019-06-20T20:00:29.000Z,100198
2019-06-20T20:01:30.000Z,100204
2019-06-20T20:03:29.000Z,100209
2019-06-20T20:04:29.000Z,100210
2019-06-20T20:06:14.000Z,100206
2019-06-20T20:08:30.000Z,100219
2019-06-20T20:10:30.000Z,100219
2019-06-20T20:12:30.000Z,100222
2019-06-20T20:14:29.000Z,100220
2019-06-20T20:16:14.000Z,100223
2019-06-20T20:17:29.000Z,100226
2019-06-20T20:18:29.000Z,100223
2019-06-20T20:20:14.000Z,100228
2019-06-20T20:21:29.000Z,100227
2019-06-20T20:22:29.000Z,100222
2019-06-20T20:24:29.000Z,100227
2019-06-20T20:26:29.000Z,100228
2019-06-20T20:27:29.000Z,100227
2019-06-20T20:29:29.000Z,100233
2019-06-20T20:31:14.000Z,100232
2019-06-20T20:32:29.000Z,100233
2019-06-20T20:34:29.000Z,100232
2019-06-20T20:35:59.000Z,100233
2019-06-20T20:37:30.000Z,100235
2019-06-20T20:38:30.000Z,100239
2019-06-20T20:40:30.000Z,100233
2019-06-20T20:42:15.000Z,100232
2019-06-20T20:44:30.000Z,100230
2019-06-20T20:45:30.000Z,100234
2019-06-20T20:47:30.000Z,100232
2019-06-20T20:48:30.000Z,100235
2019-06-20T20:50:30.000Z,100236
2019-06-20T20:52:15.000Z,100238
2019-06-20T20:53:30.000Z,100237
2019-06-20T20:54:30.000Z,100236
2019-06-20T20:56:00.000Z,100234
2019-06-20T20:57:30.000Z,100236
2019-06-20T20:59:30.000Z,100240
2019-06-20T21:01:30.000Z,100244
2019-06-20T21:03:14.000Z,100242
2019-06-20T21:04:30.000Z,100244
2019-06-20T21:06:15.000Z,100243
2019-06-20T21:07:30.000Z,100243
2019-06-20T21:09:30.000Z,100243
2019-06-20T21:11:30.000Z,100245